Time;durP1;ratioP1;P1;durP2;ratioP2;P2;SDS_P1;SDS_P2;PMS_P1;PMS_P2;Temp;Humidity;BMP_temperature;BMP_pressure;BME280_temperature;BME280_humidity;BME280_pressure;Samples;Min_cycle;Max_cycle;Signal;HPM_P1;HPM_P2
2021/09/06 00:01:50;;;;;;;;;;;17.70;84.20;;;;;;5033429;28;19912;-52
2021/09/06 00:04:53;;;;;;;;;;;17.70;84.30;;;;;;5033402;28;20299;-52
2021/09/06 00:07:58;;;;;;;;;;;17.60;84.40;;;;;;5033432;28;20280;-52
2021/09/06 00:11:07;;;;;;;;;;;17.60;85.10;;;;;;5033142;28;19920;-51
2021/09/06 00:14:11;;;;;;;;;;;17.50;85.40;;;;;;5033407;28;20291;-51
2021/09/06 00:17:15;;;;;;;;;;;17.30;85.90;;;;;;5033284;28;19916;-54
2021/09/06 00:20:19;;;;;;;;;;;17.10;86.50;;;;;;5032877;28;19916;-51
2021/09/06 00:23:24;;;;;;;;;;;17.00;86.80;;;;;;5033234;28;19920;-52
2021/09/06 00:26:29;;;;;;;;;;;16.90;87.70;;;;;;5032938;28;20288;-51
2021/09/06 00:29:32;;;;;;;;;;;16.90;87.80;;;;;;5032169;28;20000;-51
2021/09/06 00:32:36;;;;;;;;;;;17.10;87.30;;;;;;5032934;28;19916;-51
2021/09/06 00:35:40;;;;;;;;;;;17.10;87.50;;;;;;5032057;28;19920;-54
2021/09/06 00:38:44;;;;;;;;;;;17.10;87.50;;;;;;5032714;28;20291;-53
2021/09/06 00:41:49;;;;;;;;;;;17.10;87.40;;;;;;5030136;28;19932;-55
2021/09/06 00:44:53;;;;;;;;;;;17.10;87.70;;;;;;5032615;28;20296;-52
2021/09/06 00:47:57;;;;;;;;;;;16.80;88.30;;;;;;5031791;28;20406;-52
2021/09/06 00:51:01;;;;;;;;;;;16.90;88.60;;;;;;5032070;28;19909;-51
2021/09/06 00:54:06;;;;;;;;;;;16.90;88.90;;;;;;5031849;28;20299;-51
2021/09/06 00:57:10;;;;;;;;;;;16.70;89.20;;;;;;5031697;28;20201;-51
2021/09/06 01:00:16;;;;;;;;;;;16.70;89.30;;;;;;5032164;28;19940;-53
2021/09/06 01:03:21;;;;;;;;;;;16.70;89.80;;;;;;5032352;28;19920;-51
2021/09/06 01:06:25;;;;;;;;;;;16.60;90.20;;;;;;5031369;28;19916;-52
2021/09/06 01:09:42;;;;;;;;;;;16.50;90.40;;;;;;5031777;28;19916;-51
2021/09/06 01:13:10;;;;;;;;;;;16.50;90.60;;;;;;5031088;28;19916;-51
2021/09/06 01:16:15;;;;;;;;;;;16.40;91.00;;;;;;5031168;28;19940;-51
2021/09/06 01:19:20;;;;;;;;;;;16.30;91.10;;;;;;5031075;28;19920;-51
2021/09/06 01:22:29;;;;;;;;;;;16.30;91.70;;;;;;5030950;28;19917;-50
2021/09/06 01:25:48;;;;;;;;;;;16.20;91.70;;;;;;5032138;28;19920;-52
2021/09/06 01:28:53;;;;;;;;;;;16.20;91.80;;;;;;5030878;28;19920;-52
2021/09/06 01:31:57;;;;;;;;;;;16.20;92.10;;;;;;5031839;28;19916;-52
2021/09/06 01:35:01;;;;;;;;;;;16.20;92.20;;;;;;5031193;28;19924;-50
2021/09/06 01:38:05;;;;;;;;;;;16.20;92.30;;;;;;5030837;28;20302;-54
2021/09/06 01:41:09;;;;;;;;;;;16.30;92.30;;;;;;5030405;28;19931;-52
2021/09/06 01:44:14;;;;;;;;;;;16.50;92.10;;;;;;5030638;28;19924;-50
2021/09/06 01:47:18;;;;;;;;;;;16.50;92.30;;;;;;5030773;28;20010;-51
2021/09/06 01:50:24;;;;;;;;;;;16.30;92.60;;;;;;5031375;28;19916;-51
2021/09/06 01:53:32;;;;;;;;;;;16.10;93.00;;;;;;5030122;28;19967;-54
2021/09/06 01:56:38;;;;;;;;;;;16.10;93.30;;;;;;5030493;28;19920;-51
2021/09/06 01:59:43;;;;;;;;;;;16.10;93.60;;;;;;5030337;28;19924;-53
2021/09/06 02:02:47;;;;;;;;;;;16.10;93.70;;;;;;5030026;28;19916;-53
2021/09/06 02:05:56;;;;;;;;;;;16.10;93.70;;;;;;5030750;28;19922;-51
2021/09/06 02:09:11;;;;;;;;;;;16.20;93.80;;;;;;5030609;28;20295;-52
2021/09/06 02:12:16;;;;;;;;;;;16.10;94.00;;;;;;5030968;28;19916;-51
2021/09/06 02:15:24;;;;;;;;;;;16.00;94.30;;;;;;5030513;28;19916;-52
2021/09/06 02:18:29;;;;;;;;;;;15.90;94.70;;;;;;5031243;28;19916;-50
2021/09/06 02:21:35;;;;;;;;;;;15.90;94.80;;;;;;5030132;28;19913;-54
2021/09/06 02:24:42;;;;;;;;;;;15.90;94.80;;;;;;5018994;28;20363;-51
2021/09/06 02:27:55;;;;;;;;;;;15.90;95.00;;;;;;5029929;28;19916;-51
2021/09/06 02:30:59;;;;;;;;;;;15.80;95.10;;;;;;5029589;28;19913;-56
2021/09/06 02:34:20;;;;;;;;;;;15.80;95.40;;;;;;5029858;28;19920;-52
2021/09/06 02:37:24;;;;;;;;;;;15.70;95.80;;;;;;5030871;28;19912;-52
2021/09/06 02:40:29;;;;;;;;;;;15.70;95.80;;;;;;5030044;28;19916;-51
2021/09/06 02:43:32;;;;;;;;;;;15.60;96.10;;;;;;5030704;28;20359;-51
2021/09/06 02:46:39;;;;;;;;;;;15.70;96.00;;;;;;5030302;28;19976;-51
2021/09/06 02:49:44;;;;;;;;;;;15.60;96.50;;;;;;5028424;28;19916;-55
2021/09/06 02:52:55;;;;;;;;;;;15.50;96.60;;;;;;5028994;28;19944;-50
2021/09/06 02:55:59;;;;;;;;;;;15.50;96.80;;;;;;5030487;28;20122;-51
2021/09/06 02:59:04;;;;;;;;;;;15.40;97.20;;;;;;5029428;28;20303;-51
2021/09/06 03:02:09;;;;;;;;;;;15.40;97.30;;;;;;5029794;28;20292;-50
2021/09/06 03:05:13;;;;;;;;;;;15.50;97.30;;;;;;5028599;28;19923;-52
2021/09/06 03:08:24;;;;;;;;;;;15.50;97.20;;;;;;5029309;28;19916;-54
2021/09/06 03:11:28;;;;;;;;;;;15.40;97.20;;;;;;5029964;28;19936;-52
2021/09/06 03:14:33;;;;;;;;;;;15.40;97.40;;;;;;5029142;28;19935;-52
2021/09/06 03:17:37;;;;;;;;;;;15.40;97.40;;;;;;5029260;28;19918;-52
2021/09/06 03:20:41;;;;;;;;;;;15.40;97.50;;;;;;5030194;28;19968;-51
2021/09/06 03:23:48;;;;;;;;;;;15.40;97.10;;;;;;5029090;28;20323;-51
2021/09/06 03:26:54;;;;;;;;;;;15.50;97.30;;;;;;5029043;28;19920;-53
2021/09/06 03:29:58;;;;;;;;;;;15.50;97.10;;;;;;5029888;28;19932;-54
2021/09/06 03:33:02;;;;;;;;;;;15.50;97.10;;;;;;5029590;28;20421;-51
2021/09/06 03:36:06;;;;;;;;;;;15.50;97.30;;;;;;5030033;28;19916;-51
2021/09/06 03:39:11;;;;;;;;;;;15.40;97.60;;;;;;5029765;28;20513;-54
2021/09/06 03:42:15;;;;;;;;;;;15.20;98.60;;;;;;5029845;28;19920;-51
2021/09/06 03:45:20;;;;;;;;;;;15.00;99.20;;;;;;5029099;28;19924;-52
2021/09/06 03:48:29;;;;;;;;;;;14.90;99.50;;;;;;5028738;28;19928;-51
2021/09/06 03:51:35;;;;;;;;;;;14.70;99.90;;;;;;5028530;28;20302;-53
2021/09/06 03:54:39;;;;;;;;;;;14.60;99.90;;;;;;5029631;28;19928;-55
2021/09/06 03:57:45;;;;;;;;;;;14.60;99.90;;;;;;5028747;28;19909;-52
2021/09/06 04:00:49;;;;;;;;;;;14.60;99.90;;;;;;5028483;28;20122;-57
2021/09/06 04:03:56;;;;;;;;;;;14.60;99.90;;;;;;5028370;28;19912;-53
2021/09/06 04:07:01;;;;;;;;;;;14.60;99.90;;;;;;5028769;28;19920;-52
2021/09/06 04:10:10;;;;;;;;;;;14.80;99.90;;;;;;5028670;28;19909;-51
2021/09/06 04:13:14;;;;;;;;;;;14.90;99.90;;;;;;5027995;28;19920;-51
2021/09/06 04:16:18;;;;;;;;;;;14.80;99.90;;;;;;5030575;28;20379;-51
2021/09/06 04:19:22;;;;;;;;;;;14.70;99.90;;;;;;5032155;28;19916;-51
2021/09/06 04:22:26;;;;;;;;;;;14.70;99.90;;;;;;5033331;28;19916;-51
2021/09/06 04:25:31;;;;;;;;;;;14.70;99.90;;;;;;5032132;28;20289;-52
2021/09/06 04:28:36;;;;;;;;;;;14.80;99.90;;;;;;5020982;28;19920;-51
2021/09/06 04:31:42;;;;;;;;;;;14.80;99.90;;;;;;5031138;28;19920;-53
2021/09/06 04:34:46;;;;;;;;;;;14.70;99.90;;;;;;5031708;28;19916;-51
2021/09/06 04:37:50;;;;;;;;;;;14.60;99.90;;;;;;5033066;28;19916;-51
2021/09/06 04:40:58;;;;;;;;;;;14.50;99.90;;;;;;5031549;28;19916;-54
2021/09/06 04:44:02;;;;;;;;;;;14.40;99.90;;;;;;5031519;28;19924;-52
2021/09/06 04:47:07;;;;;;;;;;;14.40;99.90;;;;;;5031511;28;20830;-50
2021/09/06 04:50:11;;;;;;;;;;;14.30;99.90;;;;;;5031805;28;19920;-53
2021/09/06 04:53:16;;;;;;;;;;;14.20;99.90;;;;;;5031526;28;19920;-51
2021/09/06 04:56:23;;;;;;;;;;;14.20;99.90;;;;;;5032563;28;19916;-53
2021/09/06 04:59:26;;;;;;;;;;;14.20;99.90;;;;;;5031493;28;19932;-51
2021/09/06 05:02:30;;;;;;;;;;;14.30;99.90;;;;;;5032230;28;19917;-50
2021/09/06 05:05:38;;;;;;;;;;;14.30;99.90;;;;;;5031482;28;19912;-50
2021/09/06 05:08:43;;;;;;;;;;;14.40;99.90;;;;;;5031485;28;19915;-52
2021/09/06 05:11:48;;;;;;;;;;;14.50;99.90;;;;;;5031905;28;19932;-51
2021/09/06 05:14:52;;;;;;;;;;;14.40;99.90;;;;;;5031059;28;19936;-50
2021/09/06 05:17:57;;;;;;;;;;;14.50;99.90;;;;;;5031602;28;19920;-53
2021/09/06 05:21:02;;;;;;;;;;;14.50;99.90;;;;;;5031011;28;19913;-55
2021/09/06 05:24:08;;;;;;;;;;;14.60;99.90;;;;;;5030920;28;19940;-50
2021/09/06 05:27:12;;;;;;;;;;;14.70;99.90;;;;;;5031628;28;19916;-50
2021/09/06 05:30:16;;;;;;;;;;;14.80;99.90;;;;;;5031097;28;19924;-50
2021/09/06 05:33:21;;;;;;;;;;;15.00;99.90;;;;;;5031388;28;19916;-51
2021/09/06 05:36:27;;;;;;;;;;;16.00;99.90;;;;;;5031263;28;20096;-50
2021/09/06 05:39:35;;;;;;;;;;;19.10;99.80;;;;;;5031755;28;20409;-51
2021/09/06 05:42:41;;;;;;;;;;;22.00;94.70;;;;;;5030772;28;19916;-50
2021/09/06 05:45:46;;;;;;;;;;;24.10;90.00;;;;;;5030403;28;19916;-50
2021/09/06 05:48:51;;;;;;;;;;;25.80;84.50;;;;;;5030719;28;19935;-50
2021/09/06 05:51:55;;;;;;;;;;;27.10;79.60;;;;;;5031599;28;19916;-51
2021/09/06 05:55:09;;;;;;;;;;;28.20;76.40;;;;;;5030219;28;19935;-50
2021/09/06 05:58:13;;;;;;;;;;;27.50;74.50;;;;;;5027673;28;20526;-50
2021/09/06 06:01:17;;;;;;;;;;;27.30;74.40;;;;;;5016344;28;19935;-51
2021/09/06 06:04:22;;;;;;;;;;;28.30;74.80;;;;;;5035581;28;19919;-51
2021/09/06 06:07:31;;;;;;;;;;;30.00;71.50;;;;;;5013218;28;19919;-51
2021/09/06 06:10:35;;;;;;;;;;;30.00;69.50;;;;;;5030347;28;20296;-50
2021/09/06 06:13:39;;;;;;;;;;;30.60;68.50;;;;;;5028747;28;19916;-50
2021/09/06 06:16:44;;;;;;;;;;;31.40;67.00;;;;;;5019683;28;19920;-52
2021/09/06 06:19:49;;;;;;;;;;;31.30;65.80;;;;;;5030429;28;19924;-50
2021/09/06 06:23:12;;;;;;;;;;;30.90;66.30;;;;;;5023215;28;19916;-53
2021/09/06 06:26:45;;;;;;;;;;;31.60;65.20;;;;;;5030901;28;19971;-51
2021/09/06 06:29:50;;;;;;;;;;;32.20;64.80;;;;;;5015261;28;20419;-52
2021/09/06 06:32:54;;;;;;;;;;;31.30;64.30;;;;;;5032360;28;19915;-53
2021/09/06 06:36:19;;;;;;;;;;;31.00;64.80;;;;;;5050030;28;20393;-50
2021/09/06 06:39:23;;;;;;;;;;;31.90;64.30;;;;;;5048147;28;19916;-50
2021/09/06 06:42:31;;;;;;;;;;;32.40;63.30;;;;;;5039135;28;19957;-50
2021/09/06 06:45:36;;;;;;;;;;;32.20;63.30;;;;;;5029240;28;19932;-50
2021/09/06 06:48:41;;;;;;;;;;;32.70;63.00;;;;;;5029219;28;19916;-52
2021/09/06 06:51:45;;;;;;;;;;;32.90;61.40;;;;;;5030261;28;19916;-54
2021/09/06 06:54:50;;;;;;;;;;;31.50;62.50;;;;;;5027362;28;19913;-50
2021/09/06 06:57:56;;;;;;;;;;;31.00;63.20;;;;;;5033481;28;19915;-50
2021/09/06 07:01:00;;;;;;;;;;;30.60;64.00;;;;;;5030035;28;19916;-51
2021/09/06 07:04:04;;;;;;;;;;;31.10;63.60;;;;;;5028597;28;19928;-51
2021/09/06 07:07:11;;;;;;;;;;;30.30;64.00;;;;;;5021485;28;19924;-51
2021/09/06 07:10:17;;;;;;;;;;;29.80;64.00;;;;;;5009884;28;19921;-51
2021/09/06 07:13:21;;;;;;;;;;;29.00;66.20;;;;;;5028852;28;19943;-51
2021/09/06 07:16:26;;;;;;;;;;;29.40;66.10;;;;;;5027919;28;20374;-55
2021/09/06 07:19:30;;;;;;;;;;;29.90;65.80;;;;;;5032022;28;19916;-51
2021/09/06 07:22:34;;;;;;;;;;;30.50;65.50;;;;;;5018719;28;19984;-51
2021/09/06 07:25:38;;;;;;;;;;;31.90;63.80;;;;;;5026763;28;19920;-51
2021/09/06 07:28:41;;;;;;;;;;;33.00;63.10;;;;;;5028847;28;19916;-53
2021/09/06 07:31:46;;;;;;;;;;;33.50;62.20;;;;;;5033809;28;19931;-52
2021/09/06 07:34:50;;;;;;;;;;;33.40;61.70;;;;;;5048979;28;20383;-52
2021/09/06 07:37:56;;;;;;;;;;;34.00;61.00;;;;;;5044472;28;19920;-53
2021/09/06 07:41:03;;;;;;;;;;;34.50;60.00;;;;;;5029305;28;19916;-51
2021/09/06 07:44:07;;;;;;;;;;;34.60;59.10;;;;;;5047688;28;19916;-50
2021/09/06 07:47:13;;;;;;;;;;;35.50;58.50;;;;;;5048580;28;19924;-50
2021/09/06 07:50:19;;;;;;;;;;;35.60;57.20;;;;;;5048477;28;19909;-51
2021/09/06 07:53:25;;;;;;;;;;;35.00;58.40;;;;;;5053475;28;19920;-52
2021/09/06 07:56:31;;;;;;;;;;;34.50;59.40;;;;;;5052441;28;19925;-53
2021/09/06 07:59:35;;;;;;;;;;;34.60;59.90;;;;;;5033155;28;19936;-51
2021/09/06 08:02:42;;;;;;;;;;;35.40;59.70;;;;;;5033551;28;19924;-54
2021/09/06 08:05:49;;;;;;;;;;;37.50;58.30;;;;;;5013308;28;20541;-54
2021/09/06 08:08:54;;;;;;;;;;;39.30;56.40;;;;;;5013643;28;19921;-54
2021/09/06 08:11:58;;;;;;;;;;;38.50;54.10;;;;;;5027905;28;19920;-53
2021/09/06 08:15:02;;;;;;;;;;;38.30;50.30;;;;;;5021886;28;20299;-53
2021/09/06 08:18:06;;;;;;;;;;;38.70;49.00;;;;;;5026955;28;19920;-51
2021/09/06 08:21:19;;;;;;;;;;;38.50;49.10;;;;;;5022830;28;20387;-55
2021/09/06 08:24:25;;;;;;;;;;;37.60;49.20;;;;;;5024603;28;20403;-50
2021/09/06 08:27:30;;;;;;;;;;;37.10;49.20;;;;;;5032241;28;19916;-50
2021/09/06 08:30:34;;;;;;;;;;;37.70;49.50;;;;;;5029541;28;19931;-50
2021/09/06 08:33:38;;;;;;;;;;;38.00;48.70;;;;;;5029357;28;19916;-51
2021/09/06 08:36:43;;;;;;;;;;;37.40;48.70;;;;;;5030089;28;19916;-49
2021/09/06 08:39:49;;;;;;;;;;;36.40;49.50;;;;;;5036595;28;19963;-50
2021/09/06 08:42:53;;;;;;;;;;;36.10;49.90;;;;;;5018425;28;19936;-50
2021/09/06 08:45:58;;;;;;;;;;;36.70;49.90;;;;;;5027059;28;19920;-49
2021/09/06 08:49:02;;;;;;;;;;;37.30;48.80;;;;;;5029886;28;19909;-52
2021/09/06 08:52:07;;;;;;;;;;;37.30;48.90;;;;;;5011386;28;19921;-51
2021/09/06 08:55:12;;;;;;;;;;;38.20;48.40;;;;;;5023079;28;19920;-50
2021/09/06 08:58:21;;;;;;;;;;;39.30;46.50;;;;;;5033011;28;19909;-51
2021/09/06 09:01:35;;;;;;;;;;;40.30;46.00;;;;;;5032776;28;19940;-50
2021/09/06 09:04:59;;;;;;;;;;;41.00;45.80;;;;;;5029435;28;19924;-53
2021/09/06 09:08:21;;;;;;;;;;;40.80;45.40;;;;;;5026629;28;19916;-50
2021/09/06 09:11:36;;;;;;;;;;;40.20;45.30;;;;;;5029853;28;19936;-51
2021/09/06 09:15:00;;;;;;;;;;;41.10;45.40;;;;;;5030847;28;20386;-51
2021/09/06 09:18:29;;;;;;;;;;;43.10;44.10;;;;;;5032202;28;19932;-50
2021/09/06 09:22:00;;;;;;;;;;;43.70;43.00;;;;;;5027221;28;19924;-50
2021/09/06 09:25:24;;;;;;;;;;;43.20;43.30;;;;;;5029476;28;19967;-52
2021/09/06 09:28:47;;;;;;;;;;;44.80;42.90;;;;;;5023175;28;19932;-49
2021/09/06 09:32:23;;;;;;;;;;;44.90;42.40;;;;;;5038552;28;20397;-51
2021/09/06 09:35:57;;;;;;;;;;;44.00;42.50;;;;;;5024931;28;19936;-51
2021/09/06 09:39:04;;;;;;;;;;;44.30;42.50;;;;;;5028826;28;19917;-55
2021/09/06 09:42:11;;;;;;;;;;;45.50;42.30;;;;;;5032916;28;19915;-51
2021/09/06 09:45:23;;;;;;;;;;;43.20;42.40;;;;;;5031048;28;19913;-55
2021/09/06 09:48:42;;;;;;;;;;;41.60;43.60;;;;;;5025089;28;19920;-52
2021/09/06 09:51:48;;;;;;;;;;;42.70;43.40;;;;;;5025796;28;19916;-55
2021/09/06 09:54:53;;;;;;;;;;;43.40;42.20;;;;;;5037217;28;19923;-54
2021/09/06 09:57:58;;;;;;;;;;;44.80;42.50;;;;;;5043265;28;20323;-52
2021/09/06 10:01:05;;;;;;;;;;;43.50;42.00;;;;;;5030950;28;19916;-53
2021/09/06 10:04:11;;;;;;;;;;;42.80;43.10;;;;;;5015400;28;19916;-50
2021/09/06 10:07:19;;;;;;;;;;;42.30;42.30;;;;;;5046411;28;19967;-52
2021/09/06 10:10:25;;;;;;;;;;;39.20;43.90;;;;;;5029680;28;19915;-50
2021/09/06 10:13:38;;;;;;;;;;;39.20;44.60;;;;;;5042381;28;20667;-51
2021/09/06 10:16:43;;;;;;;;;;;39.50;44.50;;;;;;5038034;28;19940;-50
2021/09/06 10:19:49;;;;;;;;;;;39.50;44.80;;;;;;5038927;28;19916;-49
2021/09/06 10:23:01;;;;;;;;;;;38.80;44.50;;;;;;5039006;28;19916;-51
2021/09/06 10:26:08;;;;;;;;;;;37.80;45.40;;;;;;5049285;28;19939;-51
2021/09/06 10:29:13;;;;;;;;;;;37.30;44.90;;;;;;5034371;28;19931;-50
2021/09/06 10:32:17;;;;;;;;;;;37.10;44.90;;;;;;5034531;28;20057;-50
2021/09/06 10:35:22;;;;;;;;;;;37.10;44.90;;;;;;5040495;28;19940;-51
2021/09/06 10:38:35;;;;;;;;;;;37.70;44.30;;;;;;5027300;28;19924;-55
2021/09/06 10:41:43;;;;;;;;;;;38.40;44.10;;;;;;5030239;28;20390;-50
2021/09/06 10:44:56;;;;;;;;;;;39.40;44.40;;;;;;5029860;28;19924;-51
2021/09/06 10:48:03;;;;;;;;;;;40.80;42.60;;;;;;5024261;28;19932;-56
2021/09/06 10:51:10;;;;;;;;;;;39.30;42.50;;;;;;5031226;28;19935;-54
2021/09/06 10:54:14;;;;;;;;;;;37.40;43.80;;;;;;5045027;28;19919;-54
2021/09/06 10:57:18;;;;;;;;;;;38.00;44.10;;;;;;5033880;28;20390;-53
2021/09/06 11:00:24;;;;;;;;;;;39.60;43.50;;;;;;5030330;28;20406;-55
2021/09/06 11:03:36;;;;;;;;;;;41.30;41.80;;;;;;5030386;28;19920;-52
2021/09/06 11:06:40;;;;;;;;;;;42.50;41.90;;;;;;5026318;28;19924;-54
2021/09/06 11:09:47;;;;;;;;;;;44.10;40.80;;;;;;5029641;28;19920;-55
2021/09/06 11:12:53;;;;;;;;;;;43.90;39.70;;;;;;5029166;28;20429;-53
2021/09/06 11:15:58;;;;;;;;;;;45.40;40.40;;;;;;5026363;28;19931;-52
2021/09/06 11:19:10;;;;;;;;;;;46.40;40.30;;;;;;5030975;28;19924;-56
2021/09/06 11:22:17;;;;;;;;;;;45.70;39.60;;;;;;5026484;28;19920;-51
2021/09/06 11:25:23;;;;;;;;;;;43.90;40.40;;;;;;5026710;28;19924;-52
2021/09/06 11:28:28;;;;;;;;;;;40.40;41.70;;;;;;5031387;28;19919;-52
2021/09/06 11:31:31;;;;;;;;;;;39.10;42.40;;;;;;5018505;28;19909;-50
2021/09/06 11:34:37;;;;;;;;;;;38.60;43.50;;;;;;5048562;28;20493;-51
2021/09/06 11:37:44;;;;;;;;;;;38.30;43.40;;;;;;5049723;28;20320;-50
2021/09/06 11:40:51;;;;;;;;;;;37.50;43.30;;;;;;5048969;28;19909;-55
2021/09/06 11:43:56;;;;;;;;;;;37.50;44.20;;;;;;5048091;28;19916;-57
2021/09/06 11:47:00;;;;;;;;;;;38.90;43.90;;;;;;5049562;28;19920;-51
2021/09/06 11:50:07;;;;;;;;;;;39.10;43.20;;;;;;5030945;28;19928;-51
2021/09/06 11:53:13;;;;;;;;;;;39.30;43.30;;;;;;5030530;28;19924;-51
2021/09/06 11:56:16;;;;;;;;;;;40.10;42.50;;;;;;5031898;28;19916;-51
2021/09/06 11:59:26;;;;;;;;;;;40.50;42.40;;;;;;5023408;28;19916;-52
2021/09/06 12:02:31;;;;;;;;;;;42.40;41.80;;;;;;5028943;28;20466;-53
2021/09/06 12:05:40;;;;;;;;;;;44.00;40.30;;;;;;5029407;28;20390;-54
2021/09/06 12:08:54;;;;;;;;;;;44.80;39.90;;;;;;5028237;28;19916;-54
2021/09/06 12:11:58;;;;;;;;;;;44.30;40.00;;;;;;5028431;28;19920;-54
2021/09/06 12:15:05;;;;;;;;;;;43.90;40.30;;;;;;5036754;28;19919;-50
2021/09/06 12:18:13;;;;;;;;;;;42.30;40.90;;;;;;5028712;28;19916;-50
2021/09/06 12:21:18;;;;;;;;;;;41.10;41.20;;;;;;5020442;28;19916;-51
2021/09/06 12:24:23;;;;;;;;;;;40.60;41.20;;;;;;5039304;28;19915;-53
2021/09/06 12:27:33;;;;;;;;;;;39.60;42.20;;;;;;5029462;28;19936;-50
2021/09/06 12:30:38;;;;;;;;;;;40.70;41.70;;;;;;5028011;28;19936;-56
2021/09/06 12:33:43;;;;;;;;;;;41.60;41.00;;;;;;5029256;28;19917;-51
2021/09/06 12:36:49;;;;;;;;;;;42.90;40.70;;;;;;5029093;28;20429;-54
2021/09/06 12:39:53;;;;;;;;;;;42.80;40.00;;;;;;5052353;28;19916;-53
2021/09/06 12:42:58;;;;;;;;;;;42.60;40.10;;;;;;5052429;28;19915;-51
2021/09/06 12:46:04;;;;;;;;;;;43.10;39.60;;;;;;5051685;28;20291;-52
2021/09/06 12:49:09;;;;;;;;;;;43.70;39.30;;;;;;5036120;28;19916;-51
2021/09/06 12:52:13;;;;;;;;;;;45.00;38.80;;;;;;5034137;28;19920;-53
2021/09/06 12:55:18;;;;;;;;;;;45.50;38.20;;;;;;5029309;28;19944;-53
2021/09/06 12:58:22;;;;;;;;;;;45.70;38.50;;;;;;5034300;28;19916;-51
2021/09/06 13:01:26;;;;;;;;;;;44.80;38.10;;;;;;5021167;28;20429;-54
2021/09/06 13:04:30;;;;;;;;;;;41.90;38.30;;;;;;5046419;28;19920;-51
2021/09/06 13:07:34;;;;;;;;;;;40.20;38.60;;;;;;5044875;28;19924;-50
2021/09/06 13:10:39;;;;;;;;;;;39.30;39.50;;;;;;5046918;28;20298;-50
2021/09/06 13:13:42;;;;;;;;;;;39.00;39.80;;;;;;5051585;28;19947;-53
2021/09/06 13:16:47;;;;;;;;;;;39.30;40.80;;;;;;5022923;28;19916;-54
2021/09/06 13:19:51;;;;;;;;;;;39.20;39.40;;;;;;5033262;28;20291;-53
2021/09/06 13:22:56;;;;;;;;;;;39.40;39.60;;;;;;5051712;28;20389;-50
2021/09/06 13:26:04;;;;;;;;;;;39.50;40.70;;;;;;5050873;28;20398;-53
2021/09/06 13:29:09;;;;;;;;;;;40.30;40.00;;;;;;5045784;28;19927;-52
2021/09/06 13:32:14;;;;;;;;;;;40.30;41.20;;;;;;5031449;28;19908;-51
2021/09/06 13:35:17;;;;;;;;;;;40.00;40.80;;;;;;5031825;28;20493;-51
2021/09/06 13:38:21;;;;;;;;;;;38.70;41.00;;;;;;5031692;28;19924;-52
2021/09/06 13:41:26;;;;;;;;;;;37.00;42.70;;;;;;5031183;28;19916;-51
2021/09/06 13:44:31;;;;;;;;;;;37.50;42.90;;;;;;5031582;28;19932;-51
2021/09/06 13:47:35;;;;;;;;;;;36.30;43.10;;;;;;5031239;28;19923;-52
2021/09/06 13:50:39;;;;;;;;;;;35.90;43.80;;;;;;5018036;28;19933;-54
2021/09/06 13:53:43;;;;;;;;;;;36.00;44.30;;;;;;5029977;28;20303;-51
2021/09/06 13:56:48;;;;;;;;;;;36.10;44.50;;;;;;5036591;28;19939;-55
2021/09/06 13:59:52;;;;;;;;;;;36.10;44.00;;;;;;5050895;28;19915;-51
2021/09/06 14:02:56;;;;;;;;;;;34.80;46.20;;;;;;5050156;28;20026;-54
2021/09/06 14:06:03;;;;;;;;;;;33.60;47.60;;;;;;5050714;28;20397;-51
2021/09/06 14:09:07;;;;;;;;;;;33.20;48.80;;;;;;5051021;28;19909;-51
2021/09/06 14:12:11;;;;;;;;;;;33.00;48.50;;;;;;5050205;28;19932;-52
2021/09/06 14:15:16;;;;;;;;;;;32.80;48.70;;;;;;5050850;28;19916;-51
2021/09/06 14:18:21;;;;;;;;;;;33.10;49.50;;;;;;5011341;28;19917;-51
2021/09/06 14:21:25;;;;;;;;;;;32.80;50.00;;;;;;5010484;28;19909;-53
2021/09/06 14:24:31;;;;;;;;;;;32.30;50.90;;;;;;5011393;28;19945;-50
2021/09/06 14:27:35;;;;;;;;;;;32.30;51.10;;;;;;5011151;28;19917;-53
2021/09/06 14:30:39;;;;;;;;;;;32.50;51.10;;;;;;5010385;28;19920;-50
2021/09/06 14:33:45;;;;;;;;;;;32.70;50.90;;;;;;5011042;28;19921;-49
2021/09/06 14:36:49;;;;;;;;;;;32.70;50.40;;;;;;5010769;28;20412;-52
2021/09/06 14:39:53;;;;;;;;;;;32.20;50.80;;;;;;5010986;28;19952;-56
2021/09/06 14:42:57;;;;;;;;;;;31.90;51.20;;;;;;5020973;28;19921;-53
2021/09/06 14:46:03;;;;;;;;;;;31.50;52.20;;;;;;5010628;28;19984;-51
2021/09/06 14:49:08;;;;;;;;;;;31.00;52.90;;;;;;5009959;28;19917;-54
2021/09/06 14:52:12;;;;;;;;;;;30.70;53.50;;;;;;5010196;28;19916;-52
2021/09/06 14:55:16;;;;;;;;;;;30.70;53.90;;;;;;5010924;28;20390;-52
2021/09/06 14:58:21;;;;;;;;;;;31.00;53.60;;;;;;5010680;28;20386;-53
2021/09/06 15:01:28;;;;;;;;;;;31.40;53.20;;;;;;5027599;28;19909;-54
2021/09/06 15:04:33;;;;;;;;;;;31.40;53.50;;;;;;5034691;28;19916;-51
2021/09/06 15:07:37;;;;;;;;;;;30.70;53.70;;;;;;5043909;28;19921;-51
2021/09/06 15:10:41;;;;;;;;;;;30.40;54.30;;;;;;5030011;28;19924;-56
2021/09/06 15:13:45;;;;;;;;;;;30.30;54.30;;;;;;5030500;28;20291;-55
2021/09/06 15:16:50;;;;;;;;;;;30.50;53.90;;;;;;5030439;28;20288;-51
2021/09/06 15:19:54;;;;;;;;;;;30.70;53.60;;;;;;5030368;28;19916;-53
2021/09/06 15:22:58;;;;;;;;;;;30.80;53.60;;;;;;5030228;28;19920;-52
2021/09/06 15:26:03;;;;;;;;;;;31.10;53.30;;;;;;5030389;28;19936;-51
2021/09/06 15:29:09;;;;;;;;;;;30.90;53.70;;;;;;5029526;28;20299;-51
2021/09/06 15:32:14;;;;;;;;;;;30.50;53.60;;;;;;5029650;28;19916;-51
2021/09/06 15:35:19;;;;;;;;;;;30.10;54.00;;;;;;5030269;28;19909;-51
2021/09/06 15:38:26;;;;;;;;;;;30.20;54.00;;;;;;5027966;28;19924;-51
2021/09/06 15:41:51;;;;;;;;;;;30.30;54.50;;;;;;5028041;28;19909;-52
2021/09/06 15:44:55;;;;;;;;;;;30.10;54.30;;;;;;5030262;28;19928;-52
2021/09/06 15:48:01;;;;;;;;;;;29.90;54.80;;;;;;5029843;28;19924;-55
2021/09/06 15:51:06;;;;;;;;;;;29.80;55.50;;;;;;5029599;28;19924;-52
2021/09/06 15:54:10;;;;;;;;;;;29.60;55.20;;;;;;5029562;28;20482;-51
2021/09/06 15:57:14;;;;;;;;;;;29.50;54.70;;;;;;5029983;28;19916;-51
2021/09/06 16:00:18;;;;;;;;;;;29.40;55.00;;;;;;5029710;28;19916;-57
2021/09/06 16:03:24;;;;;;;;;;;29.30;55.80;;;;;;5029622;28;19909;-51
2021/09/06 16:06:28;;;;;;;;;;;29.10;56.10;;;;;;5029850;28;19920;-50
2021/09/06 16:09:32;;;;;;;;;;;29.10;56.10;;;;;;5010097;28;19917;-51
2021/09/06 16:12:37;;;;;;;;;;;28.80;56.30;;;;;;5010689;28;19916;-51
2021/09/06 16:15:41;;;;;;;;;;;28.90;57.00;;;;;;5013651;28;19909;-52
2021/09/06 16:18:45;;;;;;;;;;;28.90;56.50;;;;;;5013385;28;19917;-52
2021/09/06 16:21:49;;;;;;;;;;;28.80;57.20;;;;;;5012854;28;19917;-51
2021/09/06 16:24:53;;;;;;;;;;;28.70;56.10;;;;;;5013256;28;19987;-51
2021/09/06 16:27:57;;;;;;;;;;;28.60;56.10;;;;;;5013336;28;20288;-51
2021/09/06 16:31:01;;;;;;;;;;;28.50;56.90;;;;;;5012968;28;20291;-51
2021/09/06 16:34:05;;;;;;;;;;;28.50;55.90;;;;;;5013012;28;19917;-52
2021/09/06 16:37:11;;;;;;;;;;;28.40;56.10;;;;;;5013255;28;20390;-51
2021/09/06 16:40:16;;;;;;;;;;;28.30;55.30;;;;;;5013358;28;19916;-52
2021/09/06 16:43:20;;;;;;;;;;;28.10;55.00;;;;;;5012789;28;20283;-50
2021/09/06 16:46:25;;;;;;;;;;;27.90;54.80;;;;;;5012970;28;20410;-51
2021/09/06 16:49:31;;;;;;;;;;;27.70;55.20;;;;;;5013363;28;19916;-51
2021/09/06 16:52:35;;;;;;;;;;;27.50;55.00;;;;;;5012163;28;20386;-50
2021/09/06 16:55:40;;;;;;;;;;;27.30;55.10;;;;;;5012863;28;19932;-53
2021/09/06 16:58:44;;;;;;;;;;;27.20;55.30;;;;;;5012952;28;19917;-50
2021/09/06 17:01:48;;;;;;;;;;;27.00;55.40;;;;;;5012368;28;19936;-50
2021/09/06 17:04:52;;;;;;;;;;;26.90;55.50;;;;;;5012674;28;19906;-51
2021/09/06 17:07:56;;;;;;;;;;;26.70;55.20;;;;;;5022178;28;19920;-51
2021/09/06 17:11:00;;;;;;;;;;;26.50;55.30;;;;;;5032103;28;19919;-51
2021/09/06 17:14:06;;;;;;;;;;;26.30;55.20;;;;;;5031899;28;20482;-51
2021/09/06 17:17:10;;;;;;;;;;;26.20;55.30;;;;;;5032298;28;19916;-50
2021/09/06 17:20:15;;;;;;;;;;;26.00;55.40;;;;;;5031830;28;19932;-51
2021/09/06 17:23:18;;;;;;;;;;;25.80;55.50;;;;;;5031284;28;19920;-52
2021/09/06 17:26:23;;;;;;;;;;;25.70;55.70;;;;;;5031867;28;19925;-50
2021/09/06 17:29:31;;;;;;;;;;;25.50;55.70;;;;;;5031878;28;20086;-51
2021/09/06 17:32:35;;;;;;;;;;;25.30;56.00;;;;;;5031317;28;19920;-53
2021/09/06 17:35:39;;;;;;;;;;;25.10;56.10;;;;;;5031827;28;19916;-53
2021/09/06 17:38:44;;;;;;;;;;;24.90;56.30;;;;;;5031781;28;19932;-50
2021/09/06 17:41:49;;;;;;;;;;;24.70;56.50;;;;;;5031570;28;19945;-50
2021/09/06 17:44:53;;;;;;;;;;;24.60;56.70;;;;;;5031409;28;19920;-50
2021/09/06 17:47:57;;;;;;;;;;;24.40;56.70;;;;;;5031724;28;19920;-51
2021/09/06 17:51:01;;;;;;;;;;;24.30;56.90;;;;;;5031408;28;19909;-50
2021/09/06 17:54:05;;;;;;;;;;;24.10;57.30;;;;;;5031177;28;20291;-51
2021/09/06 17:57:09;;;;;;;;;;;24.00;57.40;;;;;;5031652;28;19916;-51
2021/09/06 18:00:13;;;;;;;;;;;23.80;57.70;;;;;;5031677;28;19916;-51
2021/09/06 18:03:16;;;;;;;;;;;23.70;58.00;;;;;;5030852;28;19920;-50